sensor_id;sensor_type;location;lat;lon;timestamp;temperature;humidity
17879;DHT22;9065;51.050;13.758;2022-09-04T00:02:29;16.30;99.90
17879;DHT22;9065;51.050;13.758;2022-09-04T00:05:04;16.30;99.90
17879;DHT22;9065;51.050;13.758;2022-09-04T00:07:38;16.30;99.90
17879;DHT22;9065;51.050;13.758;2022-09-04T00:10:11;16.30;99.90
17879;DHT22;9065;51.050;13.758;2022-09-04T00:12:45;16.30;99.90
17879;DHT22;9065;51.050;13.758;2022-09-04T00:15:18;16.30;99.90
17879;DHT22;9065;51.050;13.758;2022-09-04T00:17:53;16.40;99.90
17879;DHT22;9065;51.050;13.758;2022-09-04T00:20:29;16.40;99.90
17879;DHT22;9065;51.050;13.758;2022-09-04T00:23:04;16.40;99.90
17879;DHT22;9065;51.050;13.758;2022-09-04T00:25:42;16.40;99.90
17879;DHT22;9065;51.050;13.758;2022-09-04T00:28:16;16.50;99.90
17879;DHT22;9065;51.050;13.758;2022-09-04T00:30:50;16.40;99.90
17879;DHT22;9065;51.050;13.758;2022-09-04T00:33:23;16.50;99.90
17879;DHT22;9065;51.050;13.758;2022-09-04T00:35:56;16.50;99.90
17879;DHT22;9065;51.050;13.758;2022-09-04T00:38:37;16.50;99.90
17879;DHT22;9065;51.050;13.758;2022-09-04T00:41:10;16.60;99.90
17879;DHT22;9065;51.050;13.758;2022-09-04T00:46:48;16.60;99.90
17879;DHT22;9065;51.050;13.758;2022-09-04T00:52:14;16.50;99.90
17879;DHT22;9065;51.050;13.758;2022-09-04T00:55:08;16.60;99.90
17879;DHT22;9065;51.050;13.758;2022-09-04T00:57:58;16.60;99.90
17879;DHT22;9065;51.050;13.758;2022-09-04T01:00:29;16.50;99.90
17879;DHT22;9065;51.050;13.758;2022-09-04T01:03:14;16.60;99.90
17879;DHT22;9065;51.050;13.758;2022-09-04T01:06:02;16.60;99.90
17879;DHT22;9065;51.050;13.758;2022-09-04T01:08:41;16.50;99.90
17879;DHT22;9065;51.050;13.758;2022-09-04T01:11:19;16.50;99.90
17879;DHT22;9065;51.050;13.758;2022-09-04T01:13:57;16.60;99.90
17879;DHT22;9065;51.050;13.758;2022-09-04T01:16:32;16.60;99.90
17879;DHT22;9065;51.050;13.758;2022-09-04T01:19:07;16.60;99.90
17879;DHT22;9065;51.050;13.758;2022-09-04T01:21:55;16.60;99.90
17879;DHT22;9065;51.050;13.758;2022-09-04T01:24:53;16.70;99.90
17879;DHT22;9065;51.050;13.758;2022-09-04T01:27:27;16.60;99.90
17879;DHT22;9065;51.050;13.758;2022-09-04T01:30:00;16.60;99.90
17879;DHT22;9065;51.050;13.758;2022-09-04T01:32:38;16.60;99.90
17879;DHT22;9065;51.050;13.758;2022-09-04T01:35:14;16.60;99.90
17879;DHT22;9065;51.050;13.758;2022-09-04T01:37:54;16.60;99.90
17879;DHT22;9065;51.050;13.758;2022-09-04T01:40:37;16.60;99.90
17879;DHT22;9065;51.050;13.758;2022-09-04T01:43:08;16.60;99.90
17879;DHT22;9065;51.050;13.758;2022-09-04T01:46:02;16.60;99.90
17879;DHT22;9065;51.050;13.758;2022-09-04T01:48:39;16.60;99.90
17879;DHT22;9065;51.050;13.758;2022-09-04T01:51:15;16.60;99.90
17879;DHT22;9065;51.050;13.758;2022-09-04T01:53:45;16.70;99.90
17879;DHT22;9065;51.050;13.758;2022-09-04T01:56:18;16.70;99.90
17879;DHT22;9065;51.050;13.758;2022-09-04T01:58:53;16.70;99.90
17879;DHT22;9065;51.050;13.758;2022-09-04T02:01:28;16.70;99.90
17879;DHT22;9065;51.050;13.758;2022-09-04T02:04:04;16.70;99.90
17879;DHT22;9065;51.050;13.758;2022-09-04T02:06:44;16.70;99.90
17879;DHT22;9065;51.050;13.758;2022-09-04T02:09:24;16.70;99.90
17879;DHT22;9065;51.050;13.758;2022-09-04T02:12:04;16.70;99.90
17879;DHT22;9065;51.050;13.758;2022-09-04T02:14:39;16.70;99.90
17879;DHT22;9065;51.050;13.758;2022-09-04T02:17:09;16.70;99.90
17879;DHT22;9065;51.050;13.758;2022-09-04T02:19:50;16.70;99.90
17879;DHT22;9065;51.050;13.758;2022-09-04T02:22:30;16.60;99.90
17879;DHT22;9065;51.050;13.758;2022-09-04T02:25:03;16.70;99.90
17879;DHT22;9065;51.050;13.758;2022-09-04T02:27:37;16.70;99.90
17879;DHT22;9065;51.050;13.758;2022-09-04T02:30:09;16.70;99.90
17879;DHT22;9065;51.050;13.758;2022-09-04T02:32:44;16.70;99.90
17879;DHT22;9065;51.050;13.758;2022-09-04T02:35:16;16.60;99.90
17879;DHT22;9065;51.050;13.758;2022-09-04T02:37:55;16.60;99.90
17879;DHT22;9065;51.050;13.758;2022-09-04T02:40:31;16.60;99.90
17879;DHT22;9065;51.050;13.758;2022-09-04T02:43:18;16.60;99.90
17879;DHT22;9065;51.050;13.758;2022-09-04T02:45:57;16.60;99.90
17879;DHT22;9065;51.050;13.758;2022-09-04T02:48:32;16.60;99.90
17879;DHT22;9065;51.050;13.758;2022-09-04T02:51:22;16.60;99.90
17879;DHT22;9065;51.050;13.758;2022-09-04T02:53:58;16.60;99.90
17879;DHT22;9065;51.050;13.758;2022-09-04T02:56:38;16.60;99.90
17879;DHT22;9065;51.050;13.758;2022-09-04T02:59:28;16.60;99.90
17879;DHT22;9065;51.050;13.758;2022-09-04T03:02:03;16.60;99.90
17879;DHT22;9065;51.050;13.758;2022-09-04T03:04:36;16.60;99.90
17879;DHT22;9065;51.050;13.758;2022-09-04T03:07:08;16.60;99.90
17879;DHT22;9065;51.050;13.758;2022-09-04T03:09:41;16.50;99.90
17879;DHT22;9065;51.050;13.758;2022-09-04T03:12:24;16.50;99.90
17879;DHT22;9065;51.050;13.758;2022-09-04T03:15:00;16.50;99.90
17879;DHT22;9065;51.050;13.758;2022-09-04T03:17:34;16.50;99.90
17879;DHT22;9065;51.050;13.758;2022-09-04T03:20:08;16.50;99.90
17879;DHT22;9065;51.050;13.758;2022-09-04T03:22:44;16.50;99.90
17879;DHT22;9065;51.050;13.758;2022-09-04T03:25:39;16.40;99.90
17879;DHT22;9065;51.050;13.758;2022-09-04T03:28:16;16.40;99.90
17879;DHT22;9065;51.050;13.758;2022-09-04T03:30:44;16.40;99.90
17879;DHT22;9065;51.050;13.758;2022-09-04T03:33:17;16.50;99.90
17879;DHT22;9065;51.050;13.758;2022-09-04T03:35:50;16.40;99.90
17879;DHT22;9065;51.050;13.758;2022-09-04T03:38:27;16.40;99.90
17879;DHT22;9065;51.050;13.758;2022-09-04T03:40:59;16.50;99.90
17879;DHT22;9065;51.050;13.758;2022-09-04T03:43:49;16.40;99.90
17879;DHT22;9065;51.050;13.758;2022-09-04T03:46:28;16.50;99.90
17879;DHT22;9065;51.050;13.758;2022-09-04T03:49:20;16.50;99.90
17879;DHT22;9065;51.050;13.758;2022-09-04T03:51:59;16.40;99.90
17879;DHT22;9065;51.050;13.758;2022-09-04T03:54:38;16.40;99.90
17879;DHT22;9065;51.050;13.758;2022-09-04T03:57:30;16.40;99.90
17879;DHT22;9065;51.050;13.758;2022-09-04T04:00:06;16.40;99.90
17879;DHT22;9065;51.050;13.758;2022-09-04T04:02:46;16.40;99.90
17879;DHT22;9065;51.050;13.758;2022-09-04T04:05:38;16.30;99.90
17879;DHT22;9065;51.050;13.758;2022-09-04T04:08:33;16.40;99.90
17879;DHT22;9065;51.050;13.758;2022-09-04T04:11:18;16.40;99.90
17879;DHT22;9065;51.050;13.758;2022-09-04T04:14:11;16.30;99.90
17879;DHT22;9065;51.050;13.758;2022-09-04T04:16:47;16.30;99.90
17879;DHT22;9065;51.050;13.758;2022-09-04T04:19:38;16.40;99.90
17879;DHT22;9065;51.050;13.758;2022-09-04T04:22:29;16.40;99.90
17879;DHT22;9065;51.050;13.758;2022-09-04T04:25:35;16.40;99.90
17879;DHT22;9065;51.050;13.758;2022-09-04T04:28:17;16.30;99.90
17879;DHT22;9065;51.050;13.758;2022-09-04T04:30:50;16.20;99.90
17879;DHT22;9065;51.050;13.758;2022-09-04T04:33:30;16.20;99.90
17879;DHT22;9065;51.050;13.758;2022-09-04T04:36:11;16.10;99.90
17879;DHT22;9065;51.050;13.758;2022-09-04T04:39:01;16.10;99.90
17879;DHT22;9065;51.050;13.758;2022-09-04T04:41:48;16.10;99.90
17879;DHT22;9065;51.050;13.758;2022-09-04T04:44:40;16.10;99.90
17879;DHT22;9065;51.050;13.758;2022-09-04T04:47:38;16.20;99.90
17879;DHT22;9065;51.050;13.758;2022-09-04T04:50:12;16.20;99.90
17879;DHT22;9065;51.050;13.758;2022-09-04T04:52:49;16.20;99.90
17879;DHT22;9065;51.050;13.758;2022-09-04T04:55:31;16.20;99.90
17879;DHT22;9065;51.050;13.758;2022-09-04T05:01:23;16.20;99.90
17879;DHT22;9065;51.050;13.758;2022-09-04T05:04:00;16.10;99.90
17879;DHT22;9065;51.050;13.758;2022-09-04T05:06:35;16.00;99.90
17879;DHT22;9065;51.050;13.758;2022-09-04T05:09:11;16.00;99.90
17879;DHT22;9065;51.050;13.758;2022-09-04T05:11:51;15.90;99.90
17879;DHT22;9065;51.050;13.758;2022-09-04T05:14:41;15.90;99.90
17879;DHT22;9065;51.050;13.758;2022-09-04T05:17:19;15.80;99.90
17879;DHT22;9065;51.050;13.758;2022-09-04T05:19:52;15.80;99.90
17879;DHT22;9065;51.050;13.758;2022-09-04T05:22:24;15.80;99.90
17879;DHT22;9065;51.050;13.758;2022-09-04T05:25:00;15.80;99.90
17879;DHT22;9065;51.050;13.758;2022-09-04T05:27:40;15.80;99.90
17879;DHT22;9065;51.050;13.758;2022-09-04T05:30:11;15.80;99.90
17879;DHT22;9065;51.050;13.758;2022-09-04T05:32:46;15.80;99.90
17879;DHT22;9065;51.050;13.758;2022-09-04T05:35:21;15.80;99.90
17879;DHT22;9065;51.050;13.758;2022-09-04T05:37:54;15.80;99.90
17879;DHT22;9065;51.050;13.758;2022-09-04T05:40:27;15.80;99.90
17879;DHT22;9065;51.050;13.758;2022-09-04T05:43:05;15.80;99.90
17879;DHT22;9065;51.050;13.758;2022-09-04T05:45:47;15.90;99.90
17879;DHT22;9065;51.050;13.758;2022-09-04T05:48:20;15.90;99.90
17879;DHT22;9065;51.050;13.758;2022-09-04T05:51:10;15.90;99.90
17879;DHT22;9065;51.050;13.758;2022-09-04T05:53:52;16.00;99.90
17879;DHT22;9065;51.050;13.758;2022-09-04T05:56:43;16.00;99.90
17879;DHT22;9065;51.050;13.758;2022-09-04T05:59:44;16.10;99.90
17879;DHT22;9065;51.050;13.758;2022-09-04T06:02:30;16.20;99.90
17879;DHT22;9065;51.050;13.758;2022-09-04T06:05:14;16.30;99.90
17879;DHT22;9065;51.050;13.758;2022-09-04T06:07:52;16.30;99.90
17879;DHT22;9065;51.050;13.758;2022-09-04T06:10:25;16.30;99.90
17879;DHT22;9065;51.050;13.758;2022-09-04T06:13:27;16.40;99.90
17879;DHT22;9065;51.050;13.758;2022-09-04T06:16:13;16.40;99.90
17879;DHT22;9065;51.050;13.758;2022-09-04T06:18:56;16.40;99.90
17879;DHT22;9065;51.050;13.758;2022-09-04T06:21:55;16.40;99.90
17879;DHT22;9065;51.050;13.758;2022-09-04T06:24:36;16.50;99.90
17879;DHT22;9065;51.050;13.758;2022-09-04T06:27:21;16.60;99.90
17879;DHT22;9065;51.050;13.758;2022-09-04T06:30:08;16.70;99.90
17879;DHT22;9065;51.050;13.758;2022-09-04T06:32:51;16.80;99.90
17879;DHT22;9065;51.050;13.758;2022-09-04T06:35:31;16.90;99.90
17879;DHT22;9065;51.050;13.758;2022-09-04T06:38:16;16.90;99.90
17879;DHT22;9065;51.050;13.758;2022-09-04T06:40:56;17.00;99.90
17879;DHT22;9065;51.050;13.758;2022-09-04T06:43:33;17.10;99.90
17879;DHT22;9065;51.050;13.758;2022-09-04T06:46:10;17.20;99.90
17879;DHT22;9065;51.050;13.758;2022-09-04T06:48:50;17.30;99.90
17879;DHT22;9065;51.050;13.758;2022-09-04T06:51:31;17.50;99.90
17879;DHT22;9065;51.050;13.758;2022-09-04T06:54:12;17.60;99.90
17879;DHT22;9065;51.050;13.758;2022-09-04T06:56:54;17.60;99.90
17879;DHT22;9065;51.050;13.758;2022-09-04T06:59:33;17.70;99.90
17879;DHT22;9065;51.050;13.758;2022-09-04T07:02:10;17.60;99.90
17879;DHT22;9065;51.050;13.758;2022-09-04T07:04:52;17.70;99.90
17879;DHT22;9065;51.050;13.758;2022-09-04T07:07:26;17.80;99.90
17879;DHT22;9065;51.050;13.758;2022-09-04T07:09:58;17.80;99.90
17879;DHT22;9065;51.050;13.758;2022-09-04T07:12:46;18.00;99.90
17879;DHT22;9065;51.050;13.758;2022-09-04T07:18:47;18.50;99.90
17879;DHT22;9065;51.050;13.758;2022-09-04T07:21:25;18.60;99.90
17879;DHT22;9065;51.050;13.758;2022-09-04T07:24:01;18.50;99.90
17879;DHT22;9065;51.050;13.758;2022-09-04T07:26:38;18.60;99.90
17879;DHT22;9065;51.050;13.758;2022-09-04T07:29:28;18.70;99.90
17879;DHT22;9065;51.050;13.758;2022-09-04T07:32:00;18.80;99.90
17879;DHT22;9065;51.050;13.758;2022-09-04T07:34:39;19.00;99.90
17879;DHT22;9065;51.050;13.758;2022-09-04T07:37:20;19.10;99.90
17879;DHT22;9065;51.050;13.758;2022-09-04T07:39:59;19.10;99.90
17879;DHT22;9065;51.050;13.758;2022-09-04T07:42:33;19.10;99.90
17879;DHT22;9065;51.050;13.758;2022-09-04T07:45:04;19.40;99.90
17879;DHT22;9065;51.050;13.758;2022-09-04T07:47:37;19.50;99.90
17879;DHT22;9065;51.050;13.758;2022-09-04T07:50:10;19.70;99.90
17879;DHT22;9065;51.050;13.758;2022-09-04T07:52:53;19.80;99.90
17879;DHT22;9065;51.050;13.758;2022-09-04T07:55:34;19.90;99.90
17879;DHT22;9065;51.050;13.758;2022-09-04T07:58:32;19.70;99.90
17879;DHT22;9065;51.050;13.758;2022-09-04T08:01:22;19.70;99.90
17879;DHT22;9065;51.050;13.758;2022-09-04T08:04:22;19.70;99.90
17879;DHT22;9065;51.050;13.758;2022-09-04T08:06:56;20.00;99.90
17879;DHT22;9065;51.050;13.758;2022-09-04T08:09:59;20.10;99.90
17879;DHT22;9065;51.050;13.758;2022-09-04T08:13:05;20.10;99.90
17879;DHT22;9065;51.050;13.758;2022-09-04T08:15:41;20.10;99.90
17879;DHT22;9065;51.050;13.758;2022-09-04T08:18:23;20.30;99.90
17879;DHT22;9065;51.050;13.758;2022-09-04T08:21:01;20.60;99.90
17879;DHT22;9065;51.050;13.758;2022-09-04T08:23:50;20.80;99.90
17879;DHT22;9065;51.050;13.758;2022-09-04T08:26:33;20.80;99.90
17879;DHT22;9065;51.050;13.758;2022-09-04T08:29:22;21.00;99.90
17879;DHT22;9065;51.050;13.758;2022-09-04T08:32:05;21.20;99.90
17879;DHT22;9065;51.050;13.758;2022-09-04T08:35:02;21.40;99.90
17879;DHT22;9065;51.050;13.758;2022-09-04T08:37:38;21.40;99.90
17879;DHT22;9065;51.050;13.758;2022-09-04T08:43:34;21.40;99.90
17879;DHT22;9065;51.050;13.758;2022-09-04T08:46:32;21.40;99.90
17879;DHT22;9065;51.050;13.758;2022-09-04T08:52:38;21.70;99.90
17879;DHT22;9065;51.050;13.758;2022-09-04T08:55:48;22.00;99.90
17879;DHT22;9065;51.050;13.758;2022-09-04T09:01:57;22.10;99.90
17879;DHT22;9065;51.050;13.758;2022-09-04T09:04:55;22.30;99.90
17879;DHT22;9065;51.050;13.758;2022-09-04T09:10:36;22.40;99.90
17879;DHT22;9065;51.050;13.758;2022-09-04T09:13:41;22.40;99.90
17879;DHT22;9065;51.050;13.758;2022-09-04T09:16:21;22.40;99.90
17879;DHT22;9065;51.050;13.758;2022-09-04T09:19:16;22.40;99.90
17879;DHT22;9065;51.050;13.758;2022-09-04T09:21:49;22.50;99.90
17879;DHT22;9065;51.050;13.758;2022-09-04T09:24:52;22.40;99.90
17879;DHT22;9065;51.050;13.758;2022-09-04T09:27:50;22.50;99.90
17879;DHT22;9065;51.050;13.758;2022-09-04T09:30:23;22.80;99.90
17879;DHT22;9065;51.050;13.758;2022-09-04T09:33:17;23.00;99.90
17879;DHT22;9065;51.050;13.758;2022-09-04T09:36:13;23.20;99.90
17879;DHT22;9065;51.050;13.758;2022-09-04T09:39:04;23.30;99.90
17879;DHT22;9065;51.050;13.758;2022-09-04T09:41:57;23.30;99.90
17879;DHT22;9065;51.050;13.758;2022-09-04T09:44:48;23.40;99.90
17879;DHT22;9065;51.050;13.758;2022-09-04T09:51:02;23.70;99.90
17879;DHT22;9065;51.050;13.758;2022-09-04T09:54:03;23.90;99.90
17879;DHT22;9065;51.050;13.758;2022-09-04T09:56:55;24.00;99.90
17879;DHT22;9065;51.050;13.758;2022-09-04T09:59:59;23.80;99.90
17879;DHT22;9065;51.050;13.758;2022-09-04T10:06:05;23.80;99.90
17879;DHT22;9065;51.050;13.758;2022-09-04T10:09:01;24.10;99.90
17879;DHT22;9065;51.050;13.758;2022-09-04T10:11:53;24.00;99.90
17879;DHT22;9065;51.050;13.758;2022-09-04T10:18:09;24.50;99.90
17879;DHT22;9065;51.050;13.758;2022-09-04T10:24:14;24.90;99.90
17879;DHT22;9065;51.050;13.758;2022-09-04T10:27:13;25.10;99.90
17879;DHT22;9065;51.050;13.758;2022-09-04T10:29:57;25.40;99.90
17879;DHT22;9065;51.050;13.758;2022-09-04T10:32:40;25.50;99.90
17879;DHT22;9065;51.050;13.758;2022-09-04T10:35:22;25.30;99.90
17879;DHT22;9065;51.050;13.758;2022-09-04T10:37:59;25.60;99.90
17879;DHT22;9065;51.050;13.758;2022-09-04T10:40:38;26.30;99.90
17879;DHT22;9065;51.050;13.758;2022-09-04T10:46:17;27.90;99.90
17879;DHT22;9065;51.050;13.758;2022-09-04T10:49:22;30.00;99.90
17879;DHT22;9065;51.050;13.758;2022-09-04T10:52:18;32.00;99.90
17879;DHT22;9065;51.050;13.758;2022-09-04T10:58:11;34.30;99.90
17879;DHT22;9065;51.050;13.758;2022-09-04T11:01:01;34.00;99.90
17879;DHT22;9065;51.050;13.758;2022-09-04T11:03:40;32.80;99.90
17879;DHT22;9065;51.050;13.758;2022-09-04T11:06:34;32.20;99.90
17879;DHT22;9065;51.050;13.758;2022-09-04T11:12:27;31.50;99.90
17879;DHT22;9065;51.050;13.758;2022-09-04T11:15:23;31.20;99.90
17879;DHT22;9065;51.050;13.758;2022-09-04T11:18:23;30.70;99.90
17879;DHT22;9065;51.050;13.758;2022-09-04T11:24:31;29.00;99.90
17879;DHT22;9065;51.050;13.758;2022-09-04T11:27:31;28.30;99.90
17879;DHT22;9065;51.050;13.758;2022-09-04T11:30:09;28.00;99.90
17879;DHT22;9065;51.050;13.758;2022-09-04T11:33:07;27.50;99.90
17879;DHT22;9065;51.050;13.758;2022-09-04T11:35:52;27.10;99.90
17879;DHT22;9065;51.050;13.758;2022-09-04T11:38:43;26.60;99.90
17879;DHT22;9065;51.050;13.758;2022-09-04T11:47:57;25.90;99.90
17879;DHT22;9065;51.050;13.758;2022-09-04T11:50:41;25.80;99.90
17879;DHT22;9065;51.050;13.758;2022-09-04T11:56:50;26.00;99.90
17879;DHT22;9065;51.050;13.758;2022-09-04T11:59:50;26.30;99.90
17879;DHT22;9065;51.050;13.758;2022-09-04T12:02:48;26.50;99.90
17879;DHT22;9065;51.050;13.758;2022-09-04T12:05:21;26.70;99.90
17879;DHT22;9065;51.050;13.758;2022-09-04T12:08:19;26.70;99.90
17879;DHT22;9065;51.050;13.758;2022-09-04T12:11:04;26.60;99.90
17879;DHT22;9065;51.050;13.758;2022-09-04T12:14:02;26.70;99.90
17879;DHT22;9065;51.050;13.758;2022-09-04T12:16:48;26.50;99.90
17879;DHT22;9065;51.050;13.758;2022-09-04T12:19:39;26.20;99.90
17879;DHT22;9065;51.050;13.758;2022-09-04T12:22:36;25.90;99.90
17879;DHT22;9065;51.050;13.758;2022-09-04T12:31:30;25.90;99.90
17879;DHT22;9065;51.050;13.758;2022-09-04T12:37:28;26.40;99.90
17879;DHT22;9065;51.050;13.758;2022-09-04T12:40:29;26.60;99.90
17879;DHT22;9065;51.050;13.758;2022-09-04T12:43:09;26.50;99.90
17879;DHT22;9065;51.050;13.758;2022-09-04T12:45:46;26.40;99.90
17879;DHT22;9065;51.050;13.758;2022-09-04T12:48:23;26.10;99.90
17879;DHT22;9065;51.050;13.758;2022-09-04T12:51:02;26.10;99.90
17879;DHT22;9065;51.050;13.758;2022-09-04T12:53:49;26.00;99.90
17879;DHT22;9065;51.050;13.758;2022-09-04T12:56:27;25.90;99.90
17879;DHT22;9065;51.050;13.758;2022-09-04T12:59:08;25.60;99.90
17879;DHT22;9065;51.050;13.758;2022-09-04T13:01:48;25.40;99.90
17879;DHT22;9065;51.050;13.758;2022-09-04T13:04:21;25.20;99.90
17879;DHT22;9065;51.050;13.758;2022-09-04T13:06:59;25.10;99.90
17879;DHT22;9065;51.050;13.758;2022-09-04T13:09:37;25.20;99.90
17879;DHT22;9065;51.050;13.758;2022-09-04T13:12:17;25.10;99.90
17879;DHT22;9065;51.050;13.758;2022-09-04T13:17:53;25.00;99.90
17879;DHT22;9065;51.050;13.758;2022-09-04T13:20:30;24.90;99.90
17879;DHT22;9065;51.050;13.758;2022-09-04T13:23:17;24.90;99.90
17879;DHT22;9065;51.050;13.758;2022-09-04T13:25:58;24.80;99.90
17879;DHT22;9065;51.050;13.758;2022-09-04T13:28:39;24.70;99.90
17879;DHT22;9065;51.050;13.758;2022-09-04T13:31:31;24.60;99.90
17879;DHT22;9065;51.050;13.758;2022-09-04T13:34:10;24.60;99.90
17879;DHT22;9065;51.050;13.758;2022-09-04T13:36:46;24.50;99.90
17879;DHT22;9065;51.050;13.758;2022-09-04T13:39:42;24.60;99.90
17879;DHT22;9065;51.050;13.758;2022-09-04T13:42:38;24.60;99.90
17879;DHT22;9065;51.050;13.758;2022-09-04T13:45:11;24.60;99.90
17879;DHT22;9065;51.050;13.758;2022-09-04T13:47:45;24.70;99.90
17879;DHT22;9065;51.050;13.758;2022-09-04T13:50:18;24.60;99.90
17879;DHT22;9065;51.050;13.758;2022-09-04T13:52:51;24.70;99.90
17879;DHT22;9065;51.050;13.758;2022-09-04T13:55:22;24.70;99.90
17879;DHT22;9065;51.050;13.758;2022-09-04T13:57:56;24.70;99.90
17879;DHT22;9065;51.050;13.758;2022-09-04T14:00:27;24.70;99.90
17879;DHT22;9065;51.050;13.758;2022-09-04T14:02:59;24.80;99.90
17879;DHT22;9065;51.050;13.758;2022-09-04T14:05:30;24.70;99.90
17879;DHT22;9065;51.050;13.758;2022-09-04T14:08:01;24.70;99.90
17879;DHT22;9065;51.050;13.758;2022-09-04T14:10:49;24.60;99.90
17879;DHT22;9065;51.050;13.758;2022-09-04T14:13:29;24.60;99.90
17879;DHT22;9065;51.050;13.758;2022-09-04T14:16:03;24.50;99.90
17879;DHT22;9065;51.050;13.758;2022-09-04T14:19:07;24.50;99.90
17879;DHT22;9065;51.050;13.758;2022-09-04T14:21:50;24.60;99.90
17879;DHT22;9065;51.050;13.758;2022-09-04T14:24:22;24.60;99.90
17879;DHT22;9065;51.050;13.758;2022-09-04T14:26:55;24.50;99.90
17879;DHT22;9065;51.050;13.758;2022-09-04T14:29:29;24.50;99.90
17879;DHT22;9065;51.050;13.758;2022-09-04T14:32:11;24.50;99.90
17879;DHT22;9065;51.050;13.758;2022-09-04T14:34:50;24.50;99.90
17879;DHT22;9065;51.050;13.758;2022-09-04T14:37:46;24.50;99.90
17879;DHT22;9065;51.050;13.758;2022-09-04T14:40:18;24.50;99.90
17879;DHT22;9065;51.050;13.758;2022-09-04T14:42:53;24.50;99.90
17879;DHT22;9065;51.050;13.758;2022-09-04T14:48:35;24.50;99.90
17879;DHT22;9065;51.050;13.758;2022-09-04T14:51:13;24.60;99.90
17879;DHT22;9065;51.050;13.758;2022-09-04T14:53:46;24.60;99.90
17879;DHT22;9065;51.050;13.758;2022-09-04T14:56:30;24.60;99.90
17879;DHT22;9065;51.050;13.758;2022-09-04T14:59:06;24.70;99.90
17879;DHT22;9065;51.050;13.758;2022-09-04T15:01:38;24.70;99.90
17879;DHT22;9065;51.050;13.758;2022-09-04T15:04:24;24.70;99.90
17879;DHT22;9065;51.050;13.758;2022-09-04T15:06:55;24.60;99.90
17879;DHT22;9065;51.050;13.758;2022-09-04T15:09:27;24.60;99.90
17879;DHT22;9065;51.050;13.758;2022-09-04T15:12:14;24.70;99.90
17879;DHT22;9065;51.050;13.758;2022-09-04T15:14:46;24.50;99.90
17879;DHT22;9065;51.050;13.758;2022-09-04T15:17:22;24.50;99.90
17879;DHT22;9065;51.050;13.758;2022-09-04T15:19:58;24.50;99.90
17879;DHT22;9065;51.050;13.758;2022-09-04T15:22:31;24.40;99.90
17879;DHT22;9065;51.050;13.758;2022-09-04T15:25:04;24.50;99.90
17879;DHT22;9065;51.050;13.758;2022-09-04T15:27:41;24.60;99.90
17879;DHT22;9065;51.050;13.758;2022-09-04T15:30:17;24.50;99.90
17879;DHT22;9065;51.050;13.758;2022-09-04T15:32:49;24.50;99.90
17879;DHT22;9065;51.050;13.758;2022-09-04T15:35:30;24.50;99.90
17879;DHT22;9065;51.050;13.758;2022-09-04T15:38:04;24.50;99.90
17879;DHT22;9065;51.050;13.758;2022-09-04T15:40:35;24.60;99.90
17879;DHT22;9065;51.050;13.758;2022-09-04T15:43:10;24.60;99.90
17879;DHT22;9065;51.050;13.758;2022-09-04T15:45:43;24.60;99.90
17879;DHT22;9065;51.050;13.758;2022-09-04T15:48:23;24.70;99.90
17879;DHT22;9065;51.050;13.758;2022-09-04T15:51:09;24.60;99.90
17879;DHT22;9065;51.050;13.758;2022-09-04T15:53:40;24.60;99.90
17879;DHT22;9065;51.050;13.758;2022-09-04T15:56:28;24.60;99.90
17879;DHT22;9065;51.050;13.758;2022-09-04T15:58:59;24.60;99.90
17879;DHT22;9065;51.050;13.758;2022-09-04T16:01:30;24.50;99.90
17879;DHT22;9065;51.050;13.758;2022-09-04T16:04:06;24.50;99.90
17879;DHT22;9065;51.050;13.758;2022-09-04T16:06:44;24.50;99.90
17879;DHT22;9065;51.050;13.758;2022-09-04T16:09:19;24.40;99.90
17879;DHT22;9065;51.050;13.758;2022-09-04T16:11:56;24.30;99.90
17879;DHT22;9065;51.050;13.758;2022-09-04T16:14:30;24.20;99.90
17879;DHT22;9065;51.050;13.758;2022-09-04T16:17:01;24.10;99.90
17879;DHT22;9065;51.050;13.758;2022-09-04T16:19:37;24.10;99.90
17879;DHT22;9065;51.050;13.758;2022-09-04T16:22:15;24.10;99.90
17879;DHT22;9065;51.050;13.758;2022-09-04T16:24:46;24.10;99.90
17879;DHT22;9065;51.050;13.758;2022-09-04T16:27:16;24.10;99.90
17879;DHT22;9065;51.050;13.758;2022-09-04T16:29:46;24.10;99.90
17879;DHT22;9065;51.050;13.758;2022-09-04T16:32:19;24.10;99.90
17879;DHT22;9065;51.050;13.758;2022-09-04T16:34:48;24.10;99.90
17879;DHT22;9065;51.050;13.758;2022-09-04T16:37:28;24.10;99.90
17879;DHT22;9065;51.050;13.758;2022-09-04T16:40:11;24.10;99.90
17879;DHT22;9065;51.050;13.758;2022-09-04T16:42:44;24.10;99.90
17879;DHT22;9065;51.050;13.758;2022-09-04T16:45:17;24.00;99.90
17879;DHT22;9065;51.050;13.758;2022-09-04T16:47:50;24.00;99.90
17879;DHT22;9065;51.050;13.758;2022-09-04T16:50:24;24.00;99.90
17879;DHT22;9065;51.050;13.758;2022-09-04T16:53:12;24.00;99.90
17879;DHT22;9065;51.050;13.758;2022-09-04T16:55:48;23.90;99.90
17879;DHT22;9065;51.050;13.758;2022-09-04T16:58:26;23.90;99.90
17879;DHT22;9065;51.050;13.758;2022-09-04T17:01:05;23.90;99.90
17879;DHT22;9065;51.050;13.758;2022-09-04T17:03:40;23.80;99.90
17879;DHT22;9065;51.050;13.758;2022-09-04T17:06:18;23.80;99.90
17879;DHT22;9065;51.050;13.758;2022-09-04T17:08:52;23.80;99.90
17879;DHT22;9065;51.050;13.758;2022-09-04T17:11:28;23.80;99.90
17879;DHT22;9065;51.050;13.758;2022-09-04T17:14:01;23.70;99.90
17879;DHT22;9065;51.050;13.758;2022-09-04T17:16:32;23.70;99.90
17879;DHT22;9065;51.050;13.758;2022-09-04T17:19:03;23.60;99.90
17879;DHT22;9065;51.050;13.758;2022-09-04T17:21:38;23.60;99.90
17879;DHT22;9065;51.050;13.758;2022-09-04T17:24:30;23.50;99.90
17879;DHT22;9065;51.050;13.758;2022-09-04T17:27:12;23.50;99.90
17879;DHT22;9065;51.050;13.758;2022-09-04T17:29:45;23.40;99.90
17879;DHT22;9065;51.050;13.758;2022-09-04T17:32:17;23.40;99.90
17879;DHT22;9065;51.050;13.758;2022-09-04T17:34:56;23.30;99.90
17879;DHT22;9065;51.050;13.758;2022-09-04T17:37:30;23.30;99.90
17879;DHT22;9065;51.050;13.758;2022-09-04T17:40:03;23.30;99.90
17879;DHT22;9065;51.050;13.758;2022-09-04T17:42:37;23.20;99.90
17879;DHT22;9065;51.050;13.758;2022-09-04T17:45:12;23.20;99.90
17879;DHT22;9065;51.050;13.758;2022-09-04T17:47:42;23.10;99.90
17879;DHT22;9065;51.050;13.758;2022-09-04T17:50:12;23.00;99.90
17879;DHT22;9065;51.050;13.758;2022-09-04T17:52:55;22.90;99.90
17879;DHT22;9065;51.050;13.758;2022-09-04T17:55:24;22.90;99.90
17879;DHT22;9065;51.050;13.758;2022-09-04T17:58:01;22.80;99.90
17879;DHT22;9065;51.050;13.758;2022-09-04T18:00:33;22.70;99.90
17879;DHT22;9065;51.050;13.758;2022-09-04T18:03:11;22.60;99.90
17879;DHT22;9065;51.050;13.758;2022-09-04T18:05:42;22.60;99.90
17879;DHT22;9065;51.050;13.758;2022-09-04T18:08:15;22.50;99.90
17879;DHT22;9065;51.050;13.758;2022-09-04T18:10:52;22.50;99.90
17879;DHT22;9065;51.050;13.758;2022-09-04T18:13:29;22.40;99.90